Time;durP1;ratioP1;P1;durP2;ratioP2;P2;SDS_P1;SDS_P2;PMS_P1;PMS_P2;Temp;Humidity;BMP_temperature;BMP_pressure;BME280_temperature;BME280_humidity;BME280_pressure;Samples;Min_cycle;Max_cycle;Signal;HPM_P1;HPM_P2
2023/05/16 00:01:38;;;;;;;0.10;0.10;;;9.90;99.90;;;;;;4966182;28;20197;-84
2023/05/16 00:04:04;;;;;;;0.10;0.10;;;9.90;99.90;;;;;;4970627;28;20449;-82
2023/05/16 00:06:30;;;;;;;0.10;0.10;;;9.70;99.90;;;;;;4965669;28;20276;-82
2023/05/16 00:08:56;;;;;;;0.10;0.10;;;9.80;99.90;;;;;;4958738;28;20226;-83
2023/05/16 00:11:22;;;;;;;0.10;0.10;;;9.70;99.90;;;;;;4996684;28;20464;-82
2023/05/16 00:13:47;;;;;;;0.10;0.10;;;9.80;99.90;;;;;;4959500;28;20225;-85
2023/05/16 00:16:13;;;;;;;0.10;0.10;;;10.00;99.90;;;;;;4979086;28;20448;-84
2023/05/16 00:18:39;;;;;;;0.17;0.17;;;9.90;99.90;;;;;;4977181;28;20232;-85
2023/05/16 00:21:05;;;;;;;0.10;0.10;;;9.90;99.90;;;;;;4971663;28;20186;-85
2023/05/16 00:23:31;;;;;;;0.10;0.10;;;9.90;99.90;;;;;;4956308;28;20240;-85
2023/05/16 00:25:57;;;;;;;0.10;0.10;;;9.90;99.90;;;;;;4975131;28;20810;-83
2023/05/16 00:28:22;;;;;;;0.10;0.10;;;9.90;99.90;;;;;;4961131;28;20186;-85
2023/05/16 00:30:48;;;;;;;0.10;0.10;;;10.00;99.90;;;;;;4980908;28;20222;-84
2023/05/16 00:33:14;;;;;;;0.10;0.10;;;10.00;99.90;;;;;;4975949;28;20585;-84
2023/05/16 00:35:39;;;;;;;0.10;0.10;;;10.10;99.90;;;;;;4975210;28;20196;-84
2023/05/16 00:38:05;;;;;;;0.07;0.07;;;10.20;99.90;;;;;;4975159;28;20190;-84
2023/05/16 00:40:31;;;;;;;0.10;0.10;;;10.20;99.90;;;;;;4967499;28;20190;-82
2023/05/16 00:42:57;;;;;;;0.10;0.10;;;10.10;99.90;;;;;;4966601;28;20197;-82
2023/05/16 00:45:22;;;;;;;0.10;0.10;;;10.20;99.90;;;;;;4961919;28;20648;-85
2023/05/16 00:47:49;;;;;;;0.10;0.10;;;10.20;99.90;;;;;;4963666;28;20203;-83
2023/05/16 00:50:15;;;;;;;0.10;0.10;;;10.30;99.90;;;;;;4953174;28;20186;-84
2023/05/16 00:52:41;;;;;;;0.10;0.10;;;10.40;99.90;;;;;;4970588;28;20907;-85
2023/05/16 00:55:09;;;;;;;0.10;0.10;;;10.40;99.90;;;;;;4971146;28;20464;-85
2023/05/16 00:57:36;;;;;;;0.10;0.10;;;10.50;99.90;;;;;;4962443;28;20518;-85
2023/05/16 01:00:02;;;;;;;0.03;0.03;;;10.60;99.90;;;;;;4974051;28;20860;-84
2023/05/16 01:02:28;;;;;;;0.10;0.10;;;10.40;99.90;;;;;;4954896;28;20483;-85
2023/05/16 01:04:55;;;;;;;0.10;0.10;;;10.30;99.90;;;;;;4958146;28;20973;-82
2023/05/16 01:07:21;;;;;;;0.10;0.10;;;10.30;99.90;;;;;;4954189;28;20231;-82
2023/05/16 01:09:46;;;;;;;0.10;0.10;;;10.40;99.90;;;;;;4968852;28;20874;-85
2023/05/16 01:12:28;;;;;;;0.10;0.10;;;10.50;99.90;;;;;;4958539;28;20264;-81
2023/05/16 01:15:16;;;;;;;0.10;0.10;;;10.30;99.90;;;;;;4971017;28;20249;-82
2023/05/16 01:17:56;;;;;;;0.10;0.10;;;10.30;99.90;;;;;;4958350;28;21160;-84
2023/05/16 01:20:41;;;;;;;0.10;0.10;;;10.40;99.90;;;;;;4964413;28;20453;-82
2023/05/16 01:23:29;;;;;;;0.10;0.10;;;10.30;99.90;;;;;;4993700;28;20806;-85
2023/05/16 01:26:09;;;;;;;0.10;0.10;;;10.30;99.90;;;;;;4965660;28;20910;-82
2023/05/16 01:28:35;;;;;;;0.07;0.07;;;10.30;99.90;;;;;;4971841;28;20450;-84
2023/05/16 01:31:02;;;;;;;0.10;0.10;;;10.50;99.90;;;;;;4969050;28;20595;-82
2023/05/16 01:33:27;;;;;;;0.10;0.10;;;10.40;99.90;;;;;;4967117;28;20861;-84
2023/05/16 01:36:02;;;;;;;0.10;0.10;;;10.60;99.90;;;;;;4956122;28;20453;-84
2023/05/16 01:39:03;;;;;;;0.10;0.10;;;10.60;99.90;;;;;;4985903;28;20189;-85
2023/05/16 01:41:46;;;;;;;0.10;0.10;;;10.60;99.90;;;;;;4960622;28;20438;-84
2023/05/16 01:44:19;;;;;;;0.10;0.10;;;10.70;99.90;;;;;;4963245;28;20441;-85
2023/05/16 01:46:47;;;;;;;0.10;0.10;;;10.60;99.90;;;;;;4978607;28;20449;-84
2023/05/16 01:49:24;;;;;;;0.10;0.10;;;10.70;99.90;;;;;;4966135;28;20993;-85
2023/05/16 01:51:59;;;;;;;0.10;0.10;;;10.70;99.90;;;;;;4961110;28;20535;-84
2023/05/16 01:54:29;;;;;;;0.10;0.10;;;10.70;99.90;;;;;;4952926;28;20465;-83
2023/05/16 01:56:56;;;;;;;0.10;0.10;;;10.80;99.90;;;;;;4953545;28;20450;-85
2023/05/16 01:59:23;;;;;;;0.10;0.10;;;10.80;99.90;;;;;;4965550;28;20448;-83
2023/05/16 02:01:52;;;;;;;0.10;0.10;;;10.80;99.90;;;;;;4990724;28;20464;-83
2023/05/16 02:04:18;;;;;;;0.10;0.10;;;10.70;99.90;;;;;;4964169;28;20459;-83
2023/05/16 02:06:44;;;;;;;0.10;0.10;;;10.70;99.90;;;;;;4947434;28;20532;-84
2023/05/16 02:09:09;;;;;;;0.10;0.10;;;10.60;99.90;;;;;;4977471;28;20233;-84
2023/05/16 02:11:35;;;;;;;0.10;0.10;;;10.70;99.90;;;;;;4960073;28;20464;-84
2023/05/16 02:14:00;;;;;;;0.10;0.10;;;10.70;99.90;;;;;;4966517;28;20205;-84
2023/05/16 02:16:26;;;;;;;0.10;0.10;;;10.60;99.90;;;;;;4974822;28;20563;-84
2023/05/16 02:18:52;;;;;;;0.10;0.10;;;10.70;99.90;;;;;;4967525;28;20276;-84
2023/05/16 02:21:17;;;;;;;0.10;0.10;;;10.70;99.90;;;;;;4940970;28;20198;-84
2023/05/16 02:23:43;;;;;;;0.10;0.10;;;10.70;99.90;;;;;;4968499;28;20197;-81
2023/05/16 02:26:08;;;;;;;0.10;0.10;;;10.50;99.90;;;;;;4986697;28;20203;-85
2023/05/16 02:28:34;;;;;;;0.10;0.10;;;10.60;99.90;;;;;;4965523;28;20181;-82
2023/05/16 02:31:00;;;;;;;0.10;0.10;;;10.50;99.90;;;;;;4968309;28;20205;-85
2023/05/16 02:33:27;;;;;;;0.10;0.10;;;10.60;99.90;;;;;;4967783;28;20247;-81
2023/05/16 02:35:53;;;;;;;0.10;0.10;;;10.50;99.90;;;;;;4981693;28;20185;-86
2023/05/16 02:38:19;;;;;;;0.10;0.10;;;10.50;99.90;;;;;;4969648;28;20462;-83
2023/05/16 02:40:46;;;;;;;0.10;0.10;;;10.60;99.90;;;;;;4953209;28;20451;-85
2023/05/16 02:43:12;;;;;;;0.10;0.10;;;10.50;99.90;;;;;;4957151;28;20453;-83
2023/05/16 02:45:37;;;;;;;0.10;0.10;;;10.40;99.90;;;;;;4967974;28;21333;-84
2023/05/16 02:48:03;;;;;;;0.10;0.10;;;10.50;99.90;;;;;;4969186;28;20198;-84
2023/05/16 02:50:29;;;;;;;0.10;0.10;;;10.50;99.90;;;;;;4957836;28;20612;-84
2023/05/16 02:52:54;;;;;;;0.10;0.10;;;10.50;99.90;;;;;;4972486;28;20210;-85
2023/05/16 02:55:20;;;;;;;0.10;0.10;;;10.60;99.90;;;;;;4984166;28;20936;-84
2023/05/16 02:57:45;;;;;;;0.10;0.10;;;10.50;99.90;;;;;;4972156;28;20184;-85
2023/05/16 03:00:11;;;;;;;0.10;0.10;;;10.50;99.90;;;;;;4971088;28;20186;-85
2023/05/16 03:02:37;;;;;;;0.10;0.10;;;10.50;99.90;;;;;;4966794;28;20980;-85
2023/05/16 03:05:04;;;;;;;0.10;0.10;;;10.50;99.90;;;;;;4951868;28;20446;-85
2023/05/16 03:07:29;;;;;;;0.10;0.10;;;10.40;99.90;;;;;;4979286;28;20594;-85
2023/05/16 03:09:55;;;;;;;0.10;0.10;;;10.50;99.90;;;;;;4938896;28;20460;-85
2023/05/16 03:12:20;;;;;;;0.10;0.10;;;10.50;99.90;;;;;;4956498;28;20218;-83
2023/05/16 03:14:46;;;;;;;0.10;0.10;;;10.40;99.90;;;;;;4974607;28;20189;-82
2023/05/16 03:17:11;;;;;;;0.10;0.10;;;10.40;99.90;;;;;;4969278;28;20179;-85
2023/05/16 03:19:37;;;;;;;0.10;0.10;;;10.40;99.90;;;;;;4984655;28;20197;-82
2023/05/16 03:22:03;;;;;;;0.10;0.10;;;10.40;99.90;;;;;;4978673;28;20187;-84
2023/05/16 03:24:28;;;;;;;0.07;0.07;;;10.50;99.90;;;;;;4952401;28;20193;-82
2023/05/16 03:26:54;;;;;;;0.10;0.10;;;10.30;99.90;;;;;;4967140;28;20189;-85
2023/05/16 03:29:19;;;;;;;0.10;0.10;;;10.40;99.90;;;;;;4945334;28;20197;-84
2023/05/16 03:31:45;;;;;;;0.03;0.03;;;10.40;99.90;;;;;;4954433;28;20190;-85
2023/05/16 03:34:10;;;;;;;0.10;0.10;;;10.40;99.90;;;;;;4959160;28;20673;-83
2023/05/16 03:36:38;;;;;;;0.10;0.10;;;10.30;99.90;;;;;;4972915;28;20189;-83
2023/05/16 03:39:04;;;;;;;0.10;0.10;;;10.30;99.90;;;;;;4948567;28;20199;-85
2023/05/16 03:41:30;;;;;;;0.10;0.10;;;10.30;99.90;;;;;;4945835;28;20967;-86
2023/05/16 03:43:55;;;;;;;0.10;0.10;;;10.30;99.90;;;;;;4978425;28;20181;-86
2023/05/16 03:46:21;;;;;;;0.10;0.10;;;10.30;99.90;;;;;;4978677;28;20808;-82
2023/05/16 03:48:46;;;;;;;0.10;0.10;;;10.30;99.90;;;;;;4948795;28;20187;-85
2023/05/16 03:51:12;;;;;;;0.10;0.10;;;10.20;99.90;;;;;;4965427;28;20194;-85
2023/05/16 03:53:37;;;;;;;0.10;0.10;;;10.20;99.90;;;;;;4952981;28;20277;-82
2023/05/16 03:56:03;;;;;;;0.10;0.10;;;10.30;99.90;;;;;;4968459;28;20563;-85
2023/05/16 03:58:28;;;;;;;0.10;0.10;;;10.30;99.90;;;;;;4972739;28;20186;-82
2023/05/16 04:00:54;;;;;;;0.10;0.10;;;10.30;99.90;;;;;;4941914;28;20665;-85
2023/05/16 04:03:26;;;;;;;0.10;0.10;;;10.20;99.90;;;;;;4987161;28;20192;-86
2023/05/16 04:05:53;;;;;;;0.10;0.10;;;10.20;99.90;;;;;;4952326;28;20237;-83
2023/05/16 04:08:18;;;;;;;0.10;0.10;;;10.30;99.90;;;;;;4952331;28;20549;-81
2023/05/16 04:10:43;;;;;;;0.10;0.10;;;10.30;99.90;;;;;;4954286;28;21320;-81
2023/05/16 04:13:09;;;;;;;0.10;0.10;;;10.30;99.90;;;;;;4967846;28;20237;-84
2023/05/16 04:15:34;;;;;;;0.20;0.20;;;10.20;99.90;;;;;;4965863;28;20639;-80
2023/05/16 04:18:00;;;;;;;0.10;0.10;;;10.30;99.90;;;;;;5006156;28;20181;-81
2023/05/16 04:20:25;;;;;;;0.10;0.10;;;10.30;99.90;;;;;;4964549;28;20712;-84
2023/05/16 04:22:51;;;;;;;0.10;0.10;;;10.20;99.90;;;;;;4984549;28;20211;-85
2023/05/16 04:25:16;;;;;;;0.10;0.10;;;10.10;99.90;;;;;;4949217;28;20245;-83
2023/05/16 04:27:42;;;;;;;0.10;0.10;;;10.20;99.90;;;;;;4964762;28;20221;-85
2023/05/16 04:30:10;;;;;;;0.10;0.10;;;10.10;99.90;;;;;;4963300;28;20181;-85
2023/05/16 04:32:35;;;;;;;0.10;0.10;;;10.00;99.90;;;;;;4957182;28;20682;-83
2023/05/16 04:35:02;;;;;;;0.10;0.10;;;10.00;99.90;;;;;;4961517;28;20453;-84
2023/05/16 04:37:27;;;;;;;0.10;0.10;;;10.00;99.90;;;;;;4946687;28;20815;-85
2023/05/16 04:39:55;;;;;;;0.17;0.17;;;9.90;99.90;;;;;;4959092;28;20461;-83
2023/05/16 04:42:21;;;;;;;0.10;0.10;;;10.00;99.90;;;;;;4963140;28;20191;-84
2023/05/16 04:44:47;;;;;;;0.10;0.10;;;10.00;99.90;;;;;;4966292;28;20448;-85
2023/05/16 04:47:13;;;;;;;0.10;0.10;;;9.90;99.90;;;;;;4986932;28;20669;-86
2023/05/16 04:49:38;;;;;;;0.10;0.10;;;10.00;99.90;;;;;;4989994;28;20453;-83
2023/05/16 04:52:07;;;;;;;0.10;0.10;;;10.00;99.90;;;;;;4976792;28;20464;-86
2023/05/16 04:54:33;;;;;;;0.10;0.10;;;9.80;99.90;;;;;;4971285;28;20276;-86
2023/05/16 04:56:58;;;;;;;0.10;0.10;;;9.70;99.90;;;;;;4976669;28;20532;-86
2023/05/16 04:59:24;;;;;;;0.10;0.10;;;9.80;99.90;;;;;;4966700;28;20532;-84
2023/05/16 05:01:50;;;;;;;0.10;0.10;;;9.80;99.90;;;;;;4953049;28;20247;-84
2023/05/16 05:04:16;;;;;;;0.10;0.10;;;9.70;99.90;;;;;;4962801;28;20186;-85
2023/05/16 05:06:42;;;;;;;0.17;0.17;;;9.70;99.90;;;;;;4960880;28;20186;-84
2023/05/16 05:09:08;;;;;;;0.20;0.20;;;9.80;99.90;;;;;;4976700;28;20488;-84
2023/05/16 05:11:34;;;;;;;0.10;0.10;;;9.80;99.90;;;;;;4975097;28;20446;-85
2023/05/16 05:14:00;;;;;;;0.20;0.20;;;9.70;99.90;;;;;;4970936;28;20492;-86
2023/05/16 05:16:26;;;;;;;0.10;0.10;;;9.80;99.90;;;;;;4965359;28;20190;-86
2023/05/16 05:18:51;;;;;;;0.20;0.20;;;9.90;99.90;;;;;;4972141;28;20824;-85
2023/05/16 05:21:19;;;;;;;0.10;0.10;;;9.80;99.90;;;;;;4970432;28;20224;-85
2023/05/16 05:23:44;;;;;;;0.10;0.10;;;9.90;99.90;;;;;;4971588;28;20623;-86
2023/05/16 05:26:10;;;;;;;0.10;0.10;;;9.80;99.90;;;;;;4964131;28;20473;-84
2023/05/16 05:28:36;;;;;;;0.10;0.10;;;10.00;99.90;;;;;;4970990;28;20558;-85
2023/05/16 05:31:04;;;;;;;0.10;0.10;;;10.10;99.90;;;;;;4966870;28;20449;-84
2023/05/16 05:33:29;;;;;;;0.10;0.10;;;10.00;99.90;;;;;;4966334;28;20492;-85
2023/05/16 05:35:55;;;;;;;0.10;0.10;;;10.20;99.90;;;;;;4966147;28;20529;-84
2023/05/16 05:38:21;;;;;;;0.10;0.10;;;10.10;99.90;;;;;;4979565;28;20684;-85
2023/05/16 05:40:46;;;;;;;0.20;0.20;;;10.10;99.90;;;;;;4979429;28;20704;-86
2023/05/16 05:43:12;;;;;;;0.10;0.10;;;10.20;99.90;;;;;;4989501;28;20217;-82
2023/05/16 05:45:38;;;;;;;0.10;0.10;;;10.30;99.90;;;;;;4978696;28;20916;-85
2023/05/16 05:48:03;;;;;;;0.10;0.10;;;10.30;99.90;;;;;;4962686;28;20229;-81
2023/05/16 05:50:29;;;;;;;0.10;0.10;;;10.30;99.90;;;;;;4981941;28;20277;-82
2023/05/16 05:52:55;;;;;;;0.10;0.10;;;10.50;99.90;;;;;;4974308;28;20606;-81
2023/05/16 05:55:20;;;;;;;0.10;0.10;;;10.50;99.90;;;;;;4954431;28;20183;-80
2023/05/16 05:57:46;;;;;;;0.10;0.10;;;10.60;99.90;;;;;;4972152;28;20631;-83
2023/05/16 06:00:12;;;;;;;0.10;0.10;;;10.60;99.90;;;;;;4973524;28;20211;-83
2023/05/16 06:02:38;;;;;;;0.10;0.10;;;10.50;99.90;;;;;;4974445;28;20252;-85
2023/05/16 06:05:03;;;;;;;0.10;0.10;;;10.70;99.90;;;;;;4963298;28;20536;-83
2023/05/16 06:07:29;;;;;;;0.10;0.10;;;10.90;99.90;;;;;;4970740;28;20213;-83
2023/05/16 06:09:55;;;;;;;0.00;0.00;;;10.90;99.90;;;;;;4972982;28;20642;-84
2023/05/16 06:12:20;;;;;;;0.10;0.10;;;10.90;99.90;;;;;;4971365;28;20209;-82
2023/05/16 06:14:46;;;;;;;0.10;0.10;;;11.10;99.90;;;;;;4970363;28;20202;-83
2023/05/16 06:17:11;;;;;;;0.10;0.10;;;11.20;99.90;;;;;;4970499;28;20192;-83
2023/05/16 06:19:37;;;;;;;0.10;0.10;;;11.20;99.90;;;;;;4971557;28;20256;-86
2023/05/16 06:22:02;;;;;;;0.00;0.00;;;11.30;99.90;;;;;;4970086;28;20217;-84
2023/05/16 06:24:29;;;;;;;0.00;0.00;;;11.20;99.90;;;;;;4966291;28;20216;-84
2023/05/16 06:26:54;;;;;;;0.10;0.10;;;11.20;99.90;;;;;;4967650;28;20884;-82
2023/05/16 06:29:20;;;;;;;0.07;0.07;;;11.20;99.90;;;;;;4968642;28;20456;-81
2023/05/16 06:31:48;;;;;;;0.13;0.13;;;11.10;99.90;;;;;;4972048;28;20198;-85
2023/05/16 06:34:13;;;;;;;0.10;0.10;;;11.30;99.90;;;;;;4972978;28;20206;-87
2023/05/16 06:36:39;;;;;;;0.10;0.10;;;11.20;99.90;;;;;;4967539;28;20450;-82
2023/05/16 06:39:04;;;;;;;0.10;0.10;;;11.20;99.90;;;;;;4969266;28;20197;-85
2023/05/16 06:41:30;;;;;;;0.10;0.10;;;11.10;99.90;;;;;;4972612;28;20289;-83
2023/05/16 06:43:57;;;;;;;0.10;0.10;;;11.10;99.90;;;;;;4971987;28;20566;-82
2023/05/16 06:46:23;;;;;;;0.10;0.10;;;11.20;99.90;;;;;;4942362;28;20207;-85
2023/05/16 06:48:48;;;;;;;0.03;0.03;;;11.60;99.90;;;;;;4973001;28;20437;-86
2023/05/16 06:51:15;;;;;;;0.10;0.10;;;11.80;99.90;;;;;;4961122;28;20292;-86
2023/05/16 06:53:40;;;;;;;0.10;0.10;;;11.70;99.90;;;;;;4973716;28;20320;-85
2023/05/16 06:56:06;;;;;;;0.10;0.10;;;11.80;99.90;;;;;;4957329;28;20533;-86
2023/05/16 06:58:31;;;;;;;0.10;0.10;;;11.70;99.90;;;;;;4953892;28;20905;-86
2023/05/16 07:00:57;;;;;;;0.10;0.10;;;11.70;99.90;;;;;;4965140;28;20194;-86
2023/05/16 07:03:22;;;;;;;0.10;0.10;;;11.80;99.90;;;;;;4970758;28;20309;-85
2023/05/16 07:05:50;;;;;;;0.07;0.07;;;11.80;99.90;;;;;;4964906;28;20193;-85
2023/05/16 07:08:15;;;;;;;0.10;0.10;;;11.70;99.90;;;;;;4970681;28;20324;-87
2023/05/16 07:10:41;;;;;;;0.10;0.10;;;11.70;99.90;;;;;;4967309;28;20528;-87
2023/05/16 07:13:07;;;;;;;0.10;0.10;;;11.90;99.90;;;;;;4964552;28;20661;-84
2023/05/16 07:15:33;;;;;;;0.10;0.10;;;12.40;99.90;;;;;;4958156;28;20195;-84
2023/05/16 07:17:58;;;;;;;0.10;0.10;;;12.20;99.90;;;;;;4970586;28;20965;-86
2023/05/16 07:20:24;;;;;;;0.10;0.10;;;12.00;99.90;;;;;;4973766;28;20177;-80
2023/05/16 07:22:49;;;;;;;0.10;0.10;;;11.80;99.90;;;;;;4972370;28;20197;-83
2023/05/16 07:25:16;;;;;;;0.10;0.10;;;11.90;99.90;;;;;;4974191;28;20696;-87
2023/05/16 07:27:43;;;;;;;0.10;0.10;;;11.90;99.90;;;;;;4975319;28;20185;-87
2023/05/16 07:30:13;;;;;;;0.07;0.07;;;12.50;99.90;;;;;;4979809;28;20507;-87
2023/05/16 07:32:38;;;;;;;0.10;0.10;;;12.60;99.90;;;;;;4962101;28;20488;-87
2023/05/16 07:35:05;;;;;;;0.10;0.10;;;12.30;99.90;;;;;;4977450;28;20451;-86
2023/05/16 07:37:30;;;;;;;0.00;0.00;;;12.30;99.90;;;;;;4973720;28;20232;-87
2023/05/16 07:39:56;;;;;;;0.00;0.00;;;12.90;99.90;;;;;;4980223;28;20444;-85
2023/05/16 07:42:22;;;;;;;0.10;0.10;;;13.20;99.90;;;;;;4979231;28;20185;-84
2023/05/16 07:44:47;;;;;;;0.10;0.10;;;13.60;99.90;;;;;;4987693;28;20301;-85
2023/05/16 07:47:13;;;;;;;0.10;0.10;;;13.30;99.90;;;;;;4974065;28;20185;-84
2023/05/16 07:49:38;;;;;;;0.00;0.00;;;14.10;99.90;;;;;;4962500;28;20495;-83
2023/05/16 07:52:04;;;;;;;0.03;0.03;;;14.30;99.90;;;;;;4977034;28;20263;-87
2023/05/16 07:54:32;;;;;;;0.00;0.00;;;13.60;99.90;;;;;;4966358;28;20617;-85
2023/05/16 07:56:57;;;;;;;0.00;0.00;;;13.30;99.90;;;;;;4964224;28;20713;-85
2023/05/16 07:59:23;;;;;;;0.00;0.00;;;13.30;99.90;;;;;;4976210;28;20446;-83
2023/05/16 08:01:49;;;;;;;0.00;0.00;;;13.10;99.90;;;;;;4974838;28;20197;-84
2023/05/16 08:04:14;;;;;;;0.00;0.00;;;13.00;99.90;;;;;;4958800;28;20204;-86
2023/05/16 08:06:40;;;;;;;0.00;0.00;;;13.10;99.90;;;;;;4958901;28;20197;-85
2023/05/16 08:09:05;;;;;;;0.10;0.10;;;12.60;99.90;;;;;;4964872;28;20249;-85
2023/05/16 08:11:31;;;;;;;0.00;0.00;;;12.50;99.90;;;;;;4978301;28;20183;-85
2023/05/16 08:13:56;;;;;;;0.10;0.10;;;12.00;99.90;;;;;;4972705;28;20224;-85
2023/05/16 08:16:22;;;;;;;0.03;0.03;;;12.90;99.90;;;;;;4980769;28;20651;-84
2023/05/16 08:18:47;;;;;;;0.00;0.00;;;13.40;99.90;;;;;;4967977;28;20227;-85
2023/05/16 08:21:15;;;;;;;0.00;0.00;;;13.50;99.90;;;;;;4963920;28;20189;-83
2023/05/16 08:23:40;;;;;;;0.10;0.10;;;13.90;99.90;;;;;;4980983;28;20186;-85
2023/05/16 08:26:06;;;;;;;0.03;0.03;;;14.10;99.90;;;;;;4985023;28;20467;-85
2023/05/16 08:28:32;;;;;;;0.00;0.00;;;14.30;99.90;;;;;;4964355;28;20191;-85
2023/05/16 08:30:58;;;;;;;0.00;0.00;;;14.30;99.90;;;;;;4982006;28;20476;-84
2023/05/16 08:33:23;;;;;;;0.00;0.00;;;14.70;99.90;;;;;;4980283;28;21951;-86
2023/05/16 08:35:51;;;;;;;0.10;0.10;;;14.60;99.90;;;;;;4982773;28;20220;-84
2023/05/16 08:38:17;;;;;;;0.00;0.00;;;14.00;99.90;;;;;;4967226;28;20195;-85
2023/05/16 08:40:43;;;;;;;0.00;0.00;;;13.10;99.90;;;;;;4983774;28;20452;-83
2023/05/16 08:43:08;;;;;;;0.00;0.00;;;12.70;99.90;;;;;;4972608;28;20288;-84
2023/05/16 08:45:34;;;;;;;0.10;0.10;;;12.60;99.90;;;;;;4969481;28;20228;-84
2023/05/16 08:48:00;;;;;;;0.10;0.10;;;13.30;99.90;;;;;;4961008;28;20288;-84
2023/05/16 08:50:30;;;;;;;0.10;0.10;;;13.70;99.90;;;;;;4967901;28;20192;-85
2023/05/16 08:52:57;;;;;;;0.00;0.00;;;13.80;99.90;;;;;;4977745;28;20487;-86
2023/05/16 08:55:25;;;;;;;0.03;0.03;;;14.20;99.90;;;;;;4988280;28;20822;-84
2023/05/16 08:57:53;;;;;;;0.00;0.00;;;14.40;99.90;;;;;;4980163;28;20820;-85
2023/05/16 09:00:20;;;;;;;0.10;0.10;;;13.90;99.90;;;;;;4971241;28;20438;-85
2023/05/16 09:02:47;;;;;;;0.10;0.10;;;13.20;99.90;;;;;;4989966;28;20455;-85
2023/05/16 09:05:14;;;;;;;0.00;0.00;;;13.00;99.90;;;;;;4977315;28;20456;-85
2023/05/16 09:07:41;;;;;;;0.10;0.10;;;12.70;99.90;;;;;;4980236;28;20471;-86
2023/05/16 09:10:07;;;;;;;0.10;0.10;;;13.50;99.90;;;;;;4980548;28;20461;-84
2023/05/16 09:12:33;;;;;;;0.07;0.07;;;13.80;99.90;;;;;;4973011;28;20485;-84
2023/05/16 09:15:02;;;;;;;0.07;0.07;;;13.10;99.90;;;;;;4998082;28;20436;-87
2023/05/16 09:17:37;;;;;;;0.10;0.10;;;13.30;99.90;;;;;;4970464;28;20476;-87
2023/05/16 09:20:30;;;;;;;0.10;0.10;;;13.00;99.90;;;;;;4969654;28;20482;-87
2023/05/16 09:22:58;;;;;;;0.03;0.03;;;13.70;99.90;;;;;;4947693;28;20527;-86
2023/05/16 09:25:26;;;;;;;0.00;0.00;;;14.40;99.90;;;;;;4971962;28;20514;-86
2023/05/16 09:27:57;;;;;;;0.03;0.03;;;14.90;99.90;;;;;;4986821;28;20442;-86
2023/05/16 09:30:33;;;;;;;0.00;0.00;;;15.50;99.90;;;;;;4956850;28;20529;-85
2023/05/16 09:32:58;;;;;;;0.03;0.03;;;15.00;99.90;;;;;;4971714;28;20524;-85
2023/05/16 09:35:25;;;;;;;0.00;0.00;;;14.10;99.90;;;;;;4964087;28;20532;-86
2023/05/16 09:37:53;;;;;;;0.00;0.00;;;13.40;99.90;;;;;;4974086;28;20197;-85
2023/05/16 09:40:21;;;;;;;0.03;0.03;;;13.10;99.90;;;;;;4966651;28;21024;-86
2023/05/16 09:42:46;;;;;;;0.00;0.00;;;13.00;99.90;;;;;;4971382;28;20445;-85
2023/05/16 09:45:13;;;;;;;0.07;0.07;;;12.90;99.90;;;;;;4951622;28;20456;-85
2023/05/16 09:47:45;;;;;;;0.00;0.00;;;14.20;99.90;;;;;;4991399;28;20215;-85
2023/05/16 09:50:14;;;;;;;0.07;0.07;;;14.20;99.90;;;;;;4978441;28;20449;-85
2023/05/16 09:52:40;;;;;;;0.10;0.10;;;13.80;99.90;;;;;;4972359;28;20476;-86
2023/05/16 09:55:07;;;;;;;0.03;0.03;;;13.50;99.90;;;;;;4973573;28;20456;-86
2023/05/16 09:57:37;;;;;;;0.00;0.00;;;13.80;99.90;;;;;;4972210;28;20557;-84
2023/05/16 10:00:09;;;;;;;0.00;0.00;;;14.60;99.90;;;;;;4965585;28;20956;-86
2023/05/16 10:02:36;;;;;;;0.00;0.00;;;15.60;99.90;;;;;;4974293;28;20499;-86
2023/05/16 10:05:02;;;;;;;0.00;0.00;;;15.20;99.90;;;;;;4959898;28;20453;-86
2023/05/16 10:07:31;;;;;;;0.00;0.00;;;15.40;99.90;;;;;;4967023;28;20706;-86
2023/05/16 10:09:57;;;;;;;0.00;0.00;;;16.10;99.90;;;;;;4987973;28;20200;-86
2023/05/16 10:12:28;;;;;;;0.00;0.00;;;15.20;99.90;;;;;;4969206;28;20521;-85
2023/05/16 10:14:55;;;;;;;0.00;0.00;;;14.50;99.90;;;;;;4954985;28;20449;-87
2023/05/16 10:17:21;;;;;;;0.00;0.00;;;14.10;99.90;;;;;;4966122;28;20459;-88
2023/05/16 10:19:48;;;;;;;0.00;0.00;;;13.90;99.90;;;;;;4971985;28;21346;-86
2023/05/16 10:22:15;;;;;;;0.00;0.00;;;13.90;99.90;;;;;;4974056;28;20477;-88
2023/05/16 10:24:53;;;;;;;0.00;0.00;;;13.70;99.90;;;;;;4964009;28;20445;-86
2023/05/16 10:27:19;;;;;;;0.00;0.00;;;15.00;99.90;;;;;;4965990;28;20543;-86
2023/05/16 10:29:45;;;;;;;0.00;0.00;;;15.80;99.90;;;;;;4970579;28;20473;-84
2023/05/16 10:32:12;;;;;;;0.00;0.00;;;15.70;99.90;;;;;;4976060;28;20500;-85
2023/05/16 10:34:39;;;;;;;0.00;0.00;;;16.10;99.90;;;;;;4965175;28;20204;-85
2023/05/16 10:37:05;;;;;;;0.00;0.00;;;17.60;99.90;;;;;;4961249;28;20454;-84
2023/05/16 10:39:31;;;;;;;0.00;0.00;;;17.80;99.90;;;;;;4965511;28;20481;-83
2023/05/16 10:41:58;;;;;;;0.00;0.00;;;17.20;99.90;;;;;;4972551;28;20434;-84
2023/05/16 10:44:25;;;;;;;0.00;0.00;;;17.00;99.90;;;;;;4962708;28;20512;-84
2023/05/16 10:46:50;;;;;;;0.00;0.00;;;16.30;99.90;;;;;;4960634;28;20445;-84
2023/05/16 10:49:24;;;;;;;0.00;0.00;;;17.20;99.90;;;;;;4955990;28;20450;-85
2023/05/16 10:52:09;;;;;;;0.00;0.00;;;17.80;99.90;;;;;;4961557;28;20268;-85
2023/05/16 10:54:36;;;;;;;0.00;0.00;;;18.40;99.90;;;;;;4957249;28;20457;-86
2023/05/16 10:57:22;;;;;;;0.00;0.00;;;17.40;99.90;;;;;;4969943;28;20561;-85
2023/05/16 10:59:49;;;;;;;0.00;0.00;;;15.60;99.00;;;;;;4954399;28;20422;-82
2023/05/16 11:02:32;;;;;;;0.00;0.00;;;14.50;99.90;;;;;;4963897;28;20461;-86
2023/05/16 11:04:59;;;;;;;0.00;0.00;;;13.80;99.90;;;;;;4970303;28;20441;-84
2023/05/16 11:07:33;;;;;;;0.00;0.00;;;13.60;99.90;;;;;;4962286;28;20512;-85
2023/05/16 11:10:07;;;;;;;0.07;0.07;;;13.30;99.90;;;;;;4952016;28;20456;-85
2023/05/16 11:12:44;;;;;;;0.10;0.10;;;13.50;99.90;;;;;;4950804;28;20496;-85
2023/05/16 11:15:24;;;;;;;0.00;0.00;;;13.60;99.90;;;;;;4967761;28;20452;-84
2023/05/16 11:18:01;;;;;;;0.00;0.00;;;14.00;99.90;;;;;;4977048;28;20455;-85
2023/05/16 11:20:33;;;;;;;0.00;0.00;;;14.20;99.90;;;;;;4976908;28;20940;-85
2023/05/16 11:23:22;;;;;;;0.03;0.03;;;14.00;99.90;;;;;;4982166;28;20495;-86
2023/05/16 11:25:54;;;;;;;0.10;0.10;;;13.60;99.90;;;;;;4964161;28;20496;-84
2023/05/16 11:28:21;;;;;;;0.03;0.03;;;13.10;99.90;;;;;;4970140;28;20452;-86
2023/05/16 11:30:54;;;;;;;0.10;0.10;;;12.70;99.90;;;;;;4962617;28;20442;-88
2023/05/16 11:33:20;;;;;;;0.00;0.00;;;12.30;99.90;;;;;;4958517;28;20487;-90
2023/05/16 11:36:06;;;;;;;0.00;0.00;;;12.20;99.90;;;;;;4968094;28;20462;-89
2023/05/16 11:38:32;;;;;;;0.10;0.10;;;12.20;99.90;;;;;;4975315;28;20867;-87
2023/05/16 11:41:05;;;;;;;0.00;0.00;;;12.20;99.90;;;;;;4980743;28;20453;-89
2023/05/16 11:43:40;;;;;;;0.10;0.10;;;12.30;99.90;;;;;;4965621;28;20445;-88
2023/05/16 11:46:06;;;;;;;0.10;0.10;;;12.80;99.90;;;;;;4968595;28;20445;-89
2023/05/16 11:48:32;;;;;;;0.10;0.10;;;12.90;99.90;;;;;;4973432;28;20447;-87
2023/05/16 11:50:57;;;;;;;0.10;0.10;;;12.60;99.90;;;;;;4963765;28;20450;-88
2023/05/16 11:53:23;;;;;;;0.07;0.07;;;12.40;99.90;;;;;;4971569;28;20237;-85
2023/05/16 11:55:51;;;;;;;0.10;0.10;;;12.00;99.90;;;;;;4966371;28;20269;-91
2023/05/16 11:58:18;;;;;;;0.10;0.10;;;12.60;99.90;;;;;;4963651;28;20213;-88
2023/05/16 12:00:48;;;;;;;0.03;0.03;;;12.70;99.90;;;;;;4963474;28;20963;-87
2023/05/16 12:03:16;;;;;;;0.00;0.00;;;13.30;99.90;;;;;;4966014;28;20452;-88
2023/05/16 12:05:53;;;;;;;0.00;0.00;;;14.60;99.90;;;;;;4987676;28;20452;-88
2023/05/16 12:08:23;;;;;;;0.00;0.00;;;15.70;99.90;;;;;;4964967;28;20525;-87
2023/05/16 12:10:50;;;;;;;0.00;0.00;;;17.10;99.90;;;;;;4964463;28;20521;-86
2023/05/16 12:13:19;;;;;;;0.00;0.00;;;17.40;99.90;;;;;;4955622;28;20493;-87
2023/05/16 12:15:45;;;;;;;0.00;0.00;;;16.40;99.90;;;;;;4986087;28;20504;-86
2023/05/16 12:18:11;;;;;;;0.00;0.00;;;15.80;99.90;;;;;;4968491;28;22705;-86
2023/05/16 12:20:37;;;;;;;0.00;0.00;;;15.60;99.90;;;;;;4956082;28;20837;-87
2023/05/16 12:23:03;;;;;;;0.00;0.00;;;15.60;99.90;;;;;;4964541;28;20497;-92
2023/05/16 12:25:34;;;;;;;0.00;0.00;;;15.00;99.90;;;;;;4954897;28;20171;-92
2023/05/16 12:28:02;;;;;;;0.00;0.00;;;14.30;99.90;;;;;;4972431;28;20552;-87
2023/05/16 12:30:29;;;;;;;0.00;0.00;;;14.10;99.90;;;;;;4969461;28;20460;-90
2023/05/16 12:33:07;;;;;;;0.00;0.00;;;13.60;99.90;;;;;;4969377;28;20472;-89
2023/05/16 12:35:33;;;;;;;0.00;0.00;;;13.10;99.90;;;;;;4985136;28;20462;-88
2023/05/16 12:37:59;;;;;;;0.00;0.00;;;13.00;99.90;;;;;;4966719;28;20453;-88
2023/05/16 12:40:28;;;;;;;0.10;0.10;;;13.10;99.90;;;;;;4968946;28;20485;-86
2023/05/16 12:42:54;;;;;;;0.00;0.00;;;13.10;99.90;;;;;;4954578;28;20462;-87
2023/05/16 12:45:22;;;;;;;0.03;0.03;;;12.80;99.90;;;;;;4958095;28;20512;-87
2023/05/16 12:47:47;;;;;;;0.10;0.10;;;13.10;99.90;;;;;;4984369;28;20595;-88
2023/05/16 12:50:16;;;;;;;0.00;0.00;;;13.10;99.90;;;;;;4969320;28;20452;-85